Deer Lodge (38S)
Deer Lodge, MT
Field Elevation: 4692
Lat: 49°23.27N  Long: 112°45.89W
CTAF/Unicom Freq: 120.0250
   
     For Weather-by-Phone, call 406-846-1177
Weather Advisories
2015-03-28   22:08 Z
Altimeter 30.09" Hg
Wind 270° @ 18 KT
Gusts 30 KT
Visibility 10 SM
Temperature 9° C (48° F)
Dewpoint -6° C (21° F)
Relative Humidity 34%
Density Altitude --
Condensation Altitude 12,200 feet
Wind Chill: 5° C (41° F)
Wind and Runways
Indicated Runway = 31
Headwind = 14 kt
Crosswind = 12 kt
History
 
 
 
More Info
All DigiWx sites map
Weather Radar
NOAA Forecast
 
Airport IQ 5010
(S59) Libby
(6S5) Ravalli County
 
about DigiWx
 
FAA Disclaimer: The data displayed is for advisory purposes only and is not to be used for flight planning or operations. For official data, please call 406-846-1177 to hear the current automated AWOS voice message.
  METAR 38S 282208Z AUTO 27018G30KT VIS 10 SM 09/M06 A3009